Time;durP1;ratioP1;P1;durP2;ratioP2;P2;SDS_P1;SDS_P2;PMS_P1;PMS_P2;Temp;Humidity;BMP_temperature;BMP_pressure;BME280_temperature;BME280_humidity;BME280_pressure;Samples;Min_cycle;Max_cycle;Signal;HPM_P1;HPM_P2
2022/01/12 00:00:52;;;;;;;;;;;;;;;;;;2087921;28;19909;-66
2022/01/12 00:02:11;;;;;;;;;;;;;;;;;;2087569;28;20375;-66
2022/01/12 00:03:30;;;;;;;;;;;;;;;;;;2083533;28;19917;-66
2022/01/12 00:04:48;;;;;;;;;;;;;;;;;;2083505;28;19924;-66
2022/01/12 00:06:07;;;;;;;;;;;;;;;;;;2089269;28;20366;-66
2022/01/12 00:07:26;;;;;;;;;;;;;;;;;;2088991;28;20367;-66
2022/01/12 00:08:47;;;;;;;;;;;;;;;;;;2088612;28;19914;-66
2022/01/12 00:10:05;;;;;;;;;;;;;;;;;;2088335;28;19921;-66
2022/01/12 00:11:24;;;;;;;;;;;;;;;;;;2087981;28;19913;-66
2022/01/12 00:12:43;;;;;;;;;;;;;;;;;;2086275;28;20367;-66
2022/01/12 00:14:02;;;;;;;;;;;;;;;;;;2089426;28;19909;-66
2022/01/12 00:15:21;;;;;;;;;;;;;;;;;;2090185;28;19995;-66
2022/01/12 00:16:46;;;;;;;;;;;;;;;;;;2088569;28;20283;-66
2022/01/12 00:18:04;;;;;;;;;;;;;;;;;;2086431;28;19909;-66
2022/01/12 00:19:24;;;;;;;;;;;;;;;;;;2088070;28;20286;-66
2022/01/12 00:20:43;;;;;;;;;;;;;;;;;;2087434;28;19917;-66
2022/01/12 00:22:01;;;;;;;;;;;;;;;;;;2088485;28;20683;-66
2022/01/12 00:23:20;;;;;;;;;;;;;;;;;;2086513;28;20429;-66
2022/01/12 00:25:29;;;;;;;;;;;;;;;;;;2086903;28;19909;-66
2022/01/12 00:34:21;;;;;;;;;;;;;;;;;;2087296;28;19909;-66
2022/01/12 00:35:40;;;;;;;;;;;;;;;;;;2087744;28;20335;-66
2022/01/12 00:36:59;;;;;;;;;;;;;;;;;;2088569;28;20364;-66
2022/01/12 00:38:18;;;;;;;;;;;;;;;;;;2090506;28;20386;-66
2022/01/12 00:39:37;;;;;;;;;;;;;;;;;;2087358;28;19908;-66
2022/01/12 00:40:56;;;;;;;;;;;;;;;;;;2087831;28;20346;-66
2022/01/12 00:42:15;;;;;;;;;;;;;;;;;;2090323;28;19912;-66
2022/01/12 00:43:37;;;;;;;;;;;;;;;;;;2089230;28;20904;-66
2022/01/12 00:45:00;;;;;;;;;;;;;;;;;;2089121;28;20351;-66
2022/01/12 00:46:18;;;;;;;;;;;;;;;;;;2089201;28;19909;-66
2022/01/12 00:47:37;;;;;;;;;;;;;;;;;;2088523;28;19913;-67
2022/01/12 00:48:56;;;;;;;;;;;;;;;;;;2089516;28;19913;-66
2022/01/12 00:50:15;;;;;;;;;;;;;;;;;;2089468;28;19913;-66
2022/01/12 00:51:37;;;;;;;;;;;;;;;;;;2087494;28;20284;-66
2022/01/12 00:52:56;;;;;;;;;;;;;;;;;;2086996;28;19917;-66
2022/01/12 00:54:14;;;;;;;;;;;;;;;;;;2088484;28;20414;-66
2022/01/12 00:55:33;;;;;;;;;;;;;;;;;;2087591;28;19952;-66
2022/01/12 00:56:53;;;;;;;;;;;;;;;;;;2085699;28;19913;-67
2022/01/12 00:58:12;;;;;;;;;;;;;;;;;;2085582;28;20061;-67
2022/01/12 00:59:31;;;;;;;;;;;;;;;;;;2087771;28;19913;-66
2022/01/12 01:00:49;;;;;;;;;;;;;;;;;;2086223;28;19908;-66
2022/01/12 01:02:08;;;;;;;;;;;;;;;;;;2085982;28;20382;-67
2022/01/12 01:03:29;;;;;;;;;;;;;;;;;;2086497;28;19956;-66
2022/01/12 01:04:48;;;;;;;;;;;;;;;;;;2088036;28;19913;-66
2022/01/12 01:06:08;;;;;;;;;;;;;;;;;;2086807;28;19967;-66
2022/01/12 01:07:27;;;;;;;;;;;;;;;;;;2087026;28;19913;-66
2022/01/12 01:08:50;;;;;;;;;;;;;;;;;;2085797;28;19913;-66
2022/01/12 01:10:13;;;;;;;;;;;;;;;;;;2086465;28;19963;-66
2022/01/12 01:11:32;;;;;;;;;;;;;;;;;;2086020;28;20317;-67
2022/01/12 01:12:51;;;;;;;;;;;;;;;;;;2086410;28;19920;-67
2022/01/12 01:14:16;;;;;;;;;;;;;;;;;;2086906;28;19920;-67
2022/01/12 01:25:32;;;;;;;;;;;;;;;;;;2086063;28;20007;-66
2022/01/12 01:26:51;;;;;;;;;;;;;;;;;;2089880;28;19944;-66
2022/01/12 01:28:10;;;;;;;;;;;;;;;;;;2087195;28;20314;-67
2022/01/12 01:29:28;;;;;;;;;;;;;;;;;;2088491;28;19913;-67
2022/01/12 01:30:47;;;;;;;;;;;;;;;;;;2089496;28;19952;-67
2022/01/12 01:32:07;;;;;;;;;;;;;;;;;;2087154;28;19909;-66
2022/01/12 01:33:27;;;;;;;;;;;;;;;;;;2087596;28;19948;-67
2022/01/12 01:34:48;;;;;;;;;;;;;;;;;;2083636;28;19913;-67
2022/01/12 01:36:07;;;;;;;;;;;;;;;;;;2083577;28;19913;-67
2022/01/12 01:37:26;;;;;;;;;;;;;;;;;;2086027;28;19909;-67
2022/01/12 01:38:45;;;;;;;;;;;;;;;;;;2085978;28;20003;-66
2022/01/12 01:40:04;;;;;;;;;;;;;;;;;;2086334;28;19960;-66
2022/01/12 01:41:23;;;;;;;;;;;;;;;;;;2086835;28;19912;-67
2022/01/12 01:53:44;;;;;;;;;;;;;;;;;;2090876;28;19917;-66
2022/01/12 01:55:03;;;;;;;;;;;;;;;;;;2088824;28;19909;-66
2022/01/12 01:56:22;;;;;;;;;;;;;;;;;;2089827;28;19960;-67
2022/01/12 01:57:41;;;;;;;;;;;;;;;;;;2089110;28;19921;-67
2022/01/12 01:59:00;;;;;;;;;;;;;;;;;;2090242;28;19912;-67
2022/01/12 02:00:19;;;;;;;;;;;;;;;;;;2087777;28;19947;-67
2022/01/12 02:01:37;;;;;;;;;;;;;;;;;;2087207;28;19988;-67
2022/01/12 02:02:57;;;;;;;;;;;;;;;;;;2086270;28;19917;-67
2022/01/12 02:04:16;;;;;;;;;;;;;;;;;;2086526;28;19913;-67
2022/01/12 02:05:35;;;;;;;;;;;;;;;;;;2086512;28;20282;-67
2022/01/12 02:06:58;;;;;;;;;;;;;;;;;;2084631;28;20453;-67
2022/01/12 02:08:17;;;;;;;;;;;;;;;;;;2085468;28;20343;-67
2022/01/12 02:09:36;;;;;;;;;;;;;;;;;;2082006;28;20380;-67
2022/01/12 02:10:54;;;;;;;;;;;;;;;;;;2085472;28;20266;-67
2022/01/12 02:12:13;;;;;;;;;;;;;;;;;;2085712;28;19913;-67
2022/01/12 02:13:33;;;;;;;;;;;;;;;;;;2087687;28;19917;-67
2022/01/12 02:14:52;;;;;;;;;;;;;;;;;;2085500;28;20347;-67
2022/01/12 02:16:11;;;;;;;;;;;;;;;;;;2086293;28;19949;-67
2022/01/12 02:17:39;;;;;;;;;;;;;;;;;;2083461;28;19909;-67
2022/01/12 02:19:41;;;;;;;;;;;;;;;;;;2085446;28;19912;-67
2022/01/12 02:35:48;;;;;;;;;;;;;;;;;;2088711;28;19917;-66
2022/01/12 02:39:45;;;;;;;;;;;;;;;;;;2088300;28;20314;-66
2022/01/12 02:40:30;;;;;;;;;;;;;;;;;;2088184;28;19913;-66
2022/01/12 02:41:49;;;;;;;;;;;;;;;;;;2087240;28;19909;-66
2022/01/12 02:43:16;;;;;;;;;;;;;;;;;;2087308;28;19909;-67
2022/01/12 02:54:13;;;;;;;;;;;;;;;;;;2086347;28;19913;-66
2022/01/12 02:55:33;;;;;;;;;;;;;;;;;;2086595;28;19952;-66
2022/01/12 02:56:52;;;;;;;;;;;;;;;;;;2088643;28;19909;-66
2022/01/12 02:58:11;;;;;;;;;;;;;;;;;;2087490;28;20316;-66
2022/01/12 02:59:29;;;;;;;;;;;;;;;;;;2086885;28;20310;-67
2022/01/12 03:02:30;;;;;;;;;;;;;;;;;;2089170;28;19909;-66
2022/01/12 03:03:50;;;;;;;;;;;;;;;;;;2085178;28;19913;-67
2022/01/12 03:06:34;;;;;;;;;;;;;;;;;;2087945;28;19921;-66
2022/01/12 03:07:53;;;;;;;;;;;;;;;;;;2088651;28;19913;-66
2022/01/12 03:09:13;;;;;;;;;;;;;;;;;;2087147;28;19913;-67
2022/01/12 03:10:32;;;;;;;;;;;;;;;;;;2088539;28;19920;-66
2022/01/12 03:11:51;;;;;;;;;;;;;;;;;;2088032;28;19909;-66
2022/01/12 03:13:09;;;;;;;;;;;;;;;;;;2085662;28;19909;-66
2022/01/12 03:14:28;;;;;;;;;;;;;;;;;;2083903;28;19917;-66
2022/01/12 03:15:48;;;;;;;;;;;;;;;;;;2086055;28;19913;-67
2022/01/12 03:17:07;;;;;;;;;;;;;;;;;;2085089;28;19909;-66
2022/01/12 03:18:25;;;;;;;;;;;;;;;;;;2085783;28;19913;-67
2022/01/12 03:19:44;;;;;;;;;;;;;;;;;;2086130;28;20322;-67
2022/01/12 03:21:03;;;;;;;;;;;;;;;;;;2087300;28;19921;-67
2022/01/12 03:22:22;;;;;;;;;;;;;;;;;;2089345;28;19948;-68
2022/01/12 03:23:41;;;;;;;;;;;;;;;;;;2083967;28;19948;-67
2022/01/12 03:25:00;;;;;;;;;;;;;;;;;;2085396;28;19937;-68
2022/01/12 03:26:19;;;;;;;;;;;;;;;;;;2086363;28;20357;-67
2022/01/12 03:27:39;;;;;;;;;;;;;;;;;;2088318;28;19909;-67
2022/01/12 03:28:58;;;;;;;;;;;;;;;;;;2086289;28;19948;-67
2022/01/12 03:30:17;;;;;;;;;;;;;;;;;;2085182;28;19969;-67
2022/01/12 03:31:36;;;;;;;;;;;;;;;;;;2087973;28;19917;-67
2022/01/12 03:33:09;;;;;;;;;;;;;;;;;;2088119;28;19917;-67
2022/01/12 03:34:31;;;;;;;;;;;;;;;;;;2085627;28;19913;-67
2022/01/12 03:36:11;;;;;;;;;;;;;;;;;;2086102;28;20351;-67
2022/01/12 03:37:53;;;;;;;;;;;;;;;;;;2088382;28;19909;-67
2022/01/12 03:39:12;;;;;;;;;;;;;;;;;;2086045;28;19913;-67
2022/01/12 03:40:31;;;;;;;;;;;;;;;;;;2086627;28;19917;-67
2022/01/12 03:41:50;;;;;;;;;;;;;;;;;;2087875;28;19913;-67
2022/01/12 03:43:09;;;;;;;;;;;;;;;;;;2087533;28;20321;-67
2022/01/12 03:44:28;;;;;;;;;;;;;;;;;;2087117;28;19960;-67
2022/01/12 03:45:47;;;;;;;;;;;;;;;;;;2086493;28;20309;-67
2022/01/12 03:47:06;;;;;;;;;;;;;;;;;;2089785;28;19921;-67
2022/01/12 03:48:25;;;;;;;;;;;;;;;;;;2088548;28;19909;-67
2022/01/12 03:49:44;;;;;;;;;;;;;;;;;;2088613;28;19913;-67
2022/01/12 03:51:02;;;;;;;;;;;;;;;;;;2086875;28;20328;-67
2022/01/12 03:52:21;;;;;;;;;;;;;;;;;;2088724;28;19905;-67
2022/01/12 03:53:40;;;;;;;;;;;;;;;;;;2089001;28;20102;-67
2022/01/12 03:54:59;;;;;;;;;;;;;;;;;;2086179;28;19908;-67
2022/01/12 03:56:18;;;;;;;;;;;;;;;;;;2087574;28;19921;-67
2022/01/12 03:57:37;;;;;;;;;;;;;;;;;;2089524;28;19913;-68
2022/01/12 03:58:56;;;;;;;;;;;;;;;;;;2087850;28;20337;-67
2022/01/12 04:00:15;;;;;;;;;;;;;;;;;;2086923;28;19909;-67
2022/01/12 04:01:37;;;;;;;;;;;;;;;;;;2090145;28;19913;-67
2022/01/12 04:02:56;;;;;;;;;;;;;;;;;;2089664;28;19913;-67
2022/01/12 04:04:23;;;;;;;;;;;;;;;;;;2090540;28;19913;-67
2022/01/12 04:08:51;;;;;;;;;;;;;;;;;;2088443;28;20286;-67
2022/01/12 04:10:10;;;;;;;;;;;;;;;;;;2087260;28;19959;-67
2022/01/12 04:11:29;;;;;;;;;;;;;;;;;;2089896;28;19912;-68
2022/01/12 04:12:48;;;;;;;;;;;;;;;;;;2088302;28;20367;-68
2022/01/12 04:14:07;;;;;;;;;;;;;;;;;;2087335;28;19909;-67
2022/01/12 04:15:25;;;;;;;;;;;;;;;;;;2089143;28;19908;-67
2022/01/12 04:16:45;;;;;;;;;;;;;;;;;;2088227;28;19956;-68
2022/01/12 04:18:04;;;;;;;;;;;;;;;;;;2090090;28;19913;-67
2022/01/12 04:19:27;;;;;;;;;;;;;;;;;;2088027;28;19909;-67
2022/01/12 04:20:47;;;;;;;;;;;;;;;;;;2089859;28;20386;-67
2022/01/12 04:23:16;;;;;;;;;;;;;;;;;;2086059;28;19913;-66
2022/01/12 04:23:45;;;;;;;;;;;;;;;;;;2090149;28;19995;-67
2022/01/12 04:25:04;;;;;;;;;;;;;;;;;;2086970;28;19913;-67
2022/01/12 04:26:22;;;;;;;;;;;;;;;;;;2086567;28;19913;-67
2022/01/12 04:27:41;;;;;;;;;;;;;;;;;;2088241;28;19913;-67
2022/01/12 04:29:00;;;;;;;;;;;;;;;;;;2088098;28;20031;-67
2022/01/12 04:30:19;;;;;;;;;;;;;;;;;;2087542;28;19913;-67
2022/01/12 04:31:39;;;;;;;;;;;;;;;;;;2086801;28;19913;-67
2022/01/12 04:32:57;;;;;;;;;;;;;;;;;;2087883;28;19912;-67
2022/01/12 04:34:17;;;;;;;;;;;;;;;;;;2086146;28;19917;-67
2022/01/12 04:35:40;;;;;;;;;;;;;;;;;;2088395;28;19909;-67
2022/01/12 04:36:59;;;;;;;;;;;;;;;;;;2085553;28;19917;-67
2022/01/12 04:38:17;;;;;;;;;;;;;;;;;;2086018;28;19913;-67
2022/01/12 04:39:36;;;;;;;;;;;;;;;;;;2085808;28;19909;-68
2022/01/12 04:40:55;;;;;;;;;;;;;;;;;;2085791;28;19952;-67
2022/01/12 04:42:14;;;;;;;;;;;;;;;;;;2087170;28;19909;-67
2022/01/12 04:43:33;;;;;;;;;;;;;;;;;;2087321;28;19988;-67
2022/01/12 04:45:00;;;;;;;;;;;;;;;;;;2087694;28;21144;-68
2022/01/12 04:46:26;;;;;;;;;;;;;;;;;;2085706;28;20361;-67
2022/01/12 04:49:47;;;;;;;;;;;;;;;;;;2087891;28;19913;-67
2022/01/12 04:51:04;;;;;;;;;;;;;;;;;;2087198;28;19912;-67
2022/01/12 04:52:23;;;;;;;;;;;;;;;;;;2088061;28;19921;-67
2022/01/12 04:53:42;;;;;;;;;;;;;;;;;;2089138;28;19988;-67
2022/01/12 04:55:01;;;;;;;;;;;;;;;;;;2086887;28;19964;-67
2022/01/12 04:56:20;;;;;;;;;;;;;;;;;;2088607;28;19912;-67
2022/01/12 04:57:39;;;;;;;;;;;;;;;;;;2088363;28;19912;-67
2022/01/12 04:58:58;;;;;;;;;;;;;;;;;;2089218;28;19987;-67
2022/01/12 05:00:18;;;;;;;;;;;;;;;;;;2087849;28;20378;-67
2022/01/12 05:01:38;;;;;;;;;;;;;;;;;;2087622;28;19909;-67
2022/01/12 05:06:41;;;;;;;;;;;;;;;;;;2087279;28;19920;-67
2022/01/12 05:08:15;;;;;;;;;;;;;;;;;;2089466;28;19953;-67
2022/01/12 05:12:51;;;;;;;;;;;;;;;;;;2088619;28;19909;-67
2022/01/12 05:14:10;;;;;;;;;;;;;;;;;;2088462;28;19909;-68
2022/01/12 05:15:33;;;;;;;;;;;;;;;;;;2085275;28;19917;-67
2022/01/12 05:16:52;;;;;;;;;;;;;;;;;;2086206;28;20066;-66
2022/01/12 05:18:10;;;;;;;;;;;;;;;;;;2087916;28;19921;-66
2022/01/12 05:19:29;;;;;;;;;;;;;;;;;;2088415;28;20283;-67
2022/01/12 05:20:48;;;;;;;;;;;;;;;;;;2089266;28;19909;-68
2022/01/12 05:22:08;;;;;;;;;;;;;;;;;;2085911;28;19913;-68
2022/01/12 05:23:27;;;;;;;;;;;;;;;;;;2089475;28;20418;-69
2022/01/12 05:24:46;;;;;;;;;;;;;;;;;;2096425;28;19935;-68
2022/01/12 05:26:05;;;;;;;;;;;;;;;;;;2093954;28;19917;-68
2022/01/12 05:27:24;;;;;;;;;;;;;;;;;;2089402;28;19956;-67
2022/01/12 05:28:42;;;;;;;;;;;;;;;;;;2085662;28;19916;-68
2022/01/12 05:30:01;;;;;;;;;;;;;;;;;;2088651;28;20314;-68
2022/01/12 05:31:21;;;;;;;;;;;;;;;;;;2089635;28;19952;-68
2022/01/12 05:32:40;;;;;;;;;;;;;;;;;;2089794;28;19929;-69
2022/01/12 05:34:00;;;;;;;;;;;;;;;;;;2086376;28;19909;-69
2022/01/12 05:35:20;;;;;;;;;;;;;;;;;;2088871;28;19909;-69
2022/01/12 05:36:39;;;;;;;;;;;;;;;;;;2085542;28;20351;-68
2022/01/12 05:37:58;;;;;;;;;;;;;;;;;;2084253;28;19913;-69
2022/01/12 05:39:17;;;;;;;;;;;;;;;;;;2086632;28;19988;-68
2022/01/12 05:40:36;;;;;;;;;;;;;;;;;;2086002;28;19925;-68
2022/01/12 05:41:55;;;;;;;;;;;;;;;;;;2084504;28;19921;-68
2022/01/12 05:43:14;;;;;;;;;;;;;;;;;;2083513;28;19909;-69
2022/01/12 05:44:35;;;;;;;;;;;;;;;;;;2085977;28;20043;-69
2022/01/12 05:45:54;;;;;;;;;;;;;;;;;;2085686;28;19913;-69
2022/01/12 05:47:31;;;;;;;;;;;;;;;;;;2086327;28;19912;-68
2022/01/12 05:50:28;;;;;;;;;;;;;;;;;;2086190;28;20012;-68
2022/01/12 05:51:47;;;;;;;;;;;;;;;;;;2083736;28;20406;-68
2022/01/12 05:53:05;;;;;;;;;;;;;;;;;;2085239;28;19909;-69
2022/01/12 05:54:24;;;;;;;;;;;;;;;;;;2086367;28;19909;-68
2022/01/12 05:55:43;;;;;;;;;;;;;;;;;;2084392;28;19916;-68
2022/01/12 05:57:02;;;;;;;;;;;;;;;;;;2084609;28;20247;-69
2022/01/12 05:58:21;;;;;;;;;;;;;;;;;;2086659;28;19913;-68
2022/01/12 05:59:40;;;;;;;;;;;;;;;;;;2090208;28;19912;-68
2022/01/12 06:00:59;;;;;;;;;;;;;;;;;;2085041;28;19912;-68
2022/01/12 06:02:18;;;;;;;;;;;;;;;;;;2085995;28;19972;-67
2022/01/12 06:03:37;;;;;;;;;;;;;;;;;;2086964;28;20765;-68
2022/01/12 06:04:56;;;;;;;;;;;;;;;;;;2089268;28;19913;-68
2022/01/12 06:06:15;;;;;;;;;;;;;;;;;;2087596;28;19909;-68
2022/01/12 06:07:34;;;;;;;;;;;;;;;;;;2085417;28;19916;-67
2022/01/12 06:08:52;;;;;;;;;;;;;;;;;;2085849;28;20367;-68
2022/01/12 06:10:11;;;;;;;;;;;;;;;;;;2085169;28;19925;-69
2022/01/12 06:11:30;;;;;;;;;;;;;;;;;;2087445;28;19956;-68
2022/01/12 06:12:49;;;;;;;;;;;;;;;;;;2087903;28;20367;-68
2022/01/12 06:14:08;;;;;;;;;;;;;;;;;;2087442;28;19927;-67
2022/01/12 06:15:27;;;;;;;;;;;;;;;;;;2083122;28;19909;-68
2022/01/12 06:16:45;;;;;;;;;;;;;;;;;;2086183;28;19916;-67
2022/01/12 06:18:04;;;;;;;;;;;;;;;;;;2089069;28;19945;-68
2022/01/12 06:19:23;;;;;;;;;;;;;;;;;;2087107;28;19913;-67
2022/01/12 06:20:42;;;;;;;;;;;;;;;;;;2086121;28;19909;-67
2022/01/12 06:22:01;;;;;;;;;;;;;;;;;;2086235;28;19917;-67
2022/01/12 06:23:20;;;;;;;;;;;;;;;;;;2089161;28;20219;-67
2022/01/12 06:24:39;;;;;;;;;;;;;;;;;;2085385;28;19917;-67
2022/01/12 06:25:58;;;;;;;;;;;;;;;;;;2087321;28;19913;-68
2022/01/12 06:27:20;;;;;;;;;;;;;;;;;;2088048;28;19913;-68
2022/01/12 06:28:41;;;;;;;;;;;;;;;;;;2085764;28;19913;-68
2022/01/12 06:31:38;;;;;;;;;;;;;;;;;;2089915;28;19908;-67
2022/01/12 06:32:57;;;;;;;;;;;;;;;;;;2088856;28;19917;-68
2022/01/12 06:34:16;;;;;;;;;;;;;;;;;;2092748;28;20308;-67
2022/01/12 06:35:35;;;;;;;;;;;;;;;;;;2086317;28;19909;-68
2022/01/12 06:36:53;;;;;;;;;;;;;;;;;;2086466;28;19908;-67
2022/01/12 06:38:12;;;;;;;;;;;;;;;;;;2089433;28;21292;-68
2022/01/12 06:39:31;;;;;;;;;;;;;;;;;;2086954;28;19913;-65
2022/01/12 06:40:50;;;;;;;;;;;;;;;;;;2086603;28;19909;-65
2022/01/12 06:42:09;;;;;;;;;;;;;;;;;;2086232;28;19913;-65
2022/01/12 06:43:28;;;;;;;;;;;;;;;;;;2087107;28;19917;-64
2022/01/12 06:44:47;;;;;;;;;;;;;;;;;;2088080;28;19909;-65
2022/01/12 06:46:06;;;;;;;;;;;;;;;;;;2089121;28;20313;-65
2022/01/12 06:47:25;;;;;;;;;;;;;;;;;;2087004;28;19913;-64
2022/01/12 06:48:43;;;;;;;;;;;;;;;;;;2084445;28;19913;-65
2022/01/12 06:50:03;;;;;;;;;;;;;;;;;;2086111;28;19920;-64
2022/01/12 06:51:21;;;;;;;;;;;;;;;;;;2085928;28;19916;-65
2022/01/12 06:52:40;;;;;;;;;;;;;;;;;;2085042;28;19909;-65
2022/01/12 06:53:59;;;;;;;;;;;;;;;;;;2086767;28;19913;-65
2022/01/12 06:55:18;;;;;;;;;;;;;;;;;;2086951;28;20440;-64
2022/01/12 06:56:37;;;;;;;;;;;;;;;;;;2086863;28;20406;-66
2022/01/12 06:57:56;;;;;;;;;;;;;;;;;;2087110;28;19913;-65
2022/01/12 06:59:15;;;;;;;;;;;;;;;;;;2088081;28;19917;-65
2022/01/12 07:00:34;;;;;;;;;;;;;;;;;;2086891;28;19912;-65
2022/01/12 07:01:53;;;;;;;;;;;;;;;;;;2087899;28;19908;-64
2022/01/12 07:03:12;;;;;;;;;;;;;;;;;;2088217;28;19925;-64
2022/01/12 07:04:31;;;;;;;;;;;;;;;;;;2087083;28;20520;-65
2022/01/12 07:05:50;;;;;;;;;;;;;;;;;;2086605;28;19984;-65
2022/01/12 07:07:10;;;;;;;;;;;;;;;;;;2087835;28;19975;-64
2022/01/12 07:08:29;;;;;;;;;;;;;;;;;;2087806;28;19913;-65
2022/01/12 07:09:48;;;;;;;;;;;;;;;;;;2087575;28;19917;-64
2022/01/12 07:11:06;;;;;;;;;;;;;;;;;;2088348;28;20298;-65
2022/01/12 07:12:25;;;;;;;;;;;;;;;;;;2086444;28;19917;-64
2022/01/12 07:13:44;;;;;;;;;;;;;;;;;;2088385;28;20355;-65
2022/01/12 07:15:03;;;;;;;;;;;;;;;;;;2088078;28;19960;-65
2022/01/12 07:16:22;;;;;;;;;;;;;;;;;;2090476;28;19912;-65
2022/01/12 07:17:42;;;;;;;;;;;;;;;;;;2088764;28;20011;-65
2022/01/12 07:19:04;;;;;;;;;;;;;;;;;;2087123;28;19912;-65
2022/01/12 07:20:23;;;;;;;;;;;;;;;;;;2088357;28;19924;-64
2022/01/12 07:21:42;;;;;;;;;;;;;;;;;;2089152;28;19996;-65
2022/01/12 07:23:01;;;;;;;;;;;;;;;;;;2088334;28;20311;-64
2022/01/12 07:24:20;;;;;;;;;;;;;;;;;;2088195;28;20367;-64
2022/01/12 07:25:39;;;;;;;;;;;;;;;;;;2089622;28;19952;-66
2022/01/12 07:26:58;;;;;;;;;;;;;;;;;;2089324;28;20331;-64
2022/01/12 07:28:17;;;;;;;;;;;;;;;;;;2088012;28;20385;-64
2022/01/12 07:29:35;;;;;;;;;;;;;;;;;;2088036;28;19917;-64
2022/01/12 07:30:54;;;;;;;;;;;;;;;;;;2087987;28;20052;-64
2022/01/12 07:32:13;;;;;;;;;;;;;;;;;;2087897;28;19913;-64
2022/01/12 07:33:32;;;;;;;;;;;;;;;;;;2089308;28;19909;-64
2022/01/12 07:34:51;;;;;;;;;;;;;;;;;;2085951;28;20325;-64
2022/01/12 07:36:10;;;;;;;;;;;;;;;;;;2090765;28;19916;-65
2022/01/12 07:37:29;;;;;;;;;;;;;;;;;;2090536;28;19913;-64
2022/01/12 07:38:50;;;;;;;;;;;;;;;;;;2089358;28;19909;-64
2022/01/12 07:40:09;;;;;;;;;;;;;;;;;;2089518;28;19913;-64
2022/01/12 07:41:29;;;;;;;;;;;;;;;;;;2090883;28;19915;-64
2022/01/12 07:42:48;;;;;;;;;;;;;;;;;;2090885;28;20344;-65
2022/01/12 07:44:07;;;;;;;;;;;;;;;;;;2087742;28;19913;-64
2022/01/12 07:45:26;;;;;;;;;;;;;;;;;;2087518;28;19999;-65
2022/01/12 07:46:45;;;;;;;;;;;;;;;;;;2089798;28;19948;-64
2022/01/12 07:48:04;;;;;;;;;;;;;;;;;;2088967;28;20007;-64
2022/01/12 07:49:23;;;;;;;;;;;;;;;;;;2098230;28;19955;-65
2022/01/12 07:50:43;;;;;;;;;;;;;;;;;;2086954;28;19917;-64
2022/01/12 07:52:02;;;;;;;;;;;;;;;;;;2088641;28;20314;-64
2022/01/12 07:53:21;;;;;;;;;;;;;;;;;;2091830;28;20246;-64
2022/01/12 07:54:40;;;;;;;;;;;;;;;;;;2089005;28;20379;-65
2022/01/12 07:55:59;;;;;;;;;;;;;;;;;;2086385;28;19948;-64
2022/01/12 07:57:18;;;;;;;;;;;;;;;;;;2089152;28;19916;-64
2022/01/12 07:58:37;;;;;;;;;;;;;;;;;;2088370;28;19916;-64
2022/01/12 07:59:56;;;;;;;;;;;;;;;;;;2087843;28;19916;-66
2022/01/12 08:01:15;;;;;;;;;;;;;;;;;;2087203;28;19972;-64
2022/01/12 08:02:34;;;;;;;;;;;;;;;;;;2086431;28;20025;-65
2022/01/12 08:03:53;;;;;;;;;;;;;;;;;;2088106;28;19909;-64
2022/01/12 08:05:12;;;;;;;;;;;;;;;;;;2087695;28;19917;-65
2022/01/12 08:06:31;;;;;;;;;;;;;;;;;;2087626;28;19917;-65
2022/01/12 08:07:52;;;;;;;;;;;;;;;;;;2086928;28;19913;-65
2022/01/12 08:09:11;;;;;;;;;;;;;;;;;;2087406;28;20393;-64
2022/01/12 08:10:30;;;;;;;;;;;;;;;;;;2086977;28;19933;-65
2022/01/12 08:11:49;;;;;;;;;;;;;;;;;;2085245;28;20408;-64
2022/01/12 08:13:07;;;;;;;;;;;;;;;;;;2085460;28;20283;-65
2022/01/12 08:14:26;;;;;;;;;;;;;;;;;;2086941;28;19913;-65
2022/01/12 08:15:45;;;;;;;;;;;;;;;;;;2087750;28;20457;-64
2022/01/12 08:17:04;;;;;;;;;;;;;;;;;;2086483;28;19917;-65
2022/01/12 08:18:23;;;;;;;;;;;;;;;;;;2087590;28;19912;-65
2022/01/12 08:19:42;;;;;;;;;;;;;;;;;;2088363;28;20007;-64
2022/01/12 08:21:03;;;;;;;;;;;;;;;;;;2085071;28;20361;-65
2022/01/12 08:22:21;;;;;;;;;;;;;;;;;;2086532;28;19917;-65
2022/01/12 08:23:40;;;;;;;;;;;;;;;;;;2084430;28;19916;-65
2022/01/12 08:24:59;;;;;;;;;;;;;;;;;;2086051;28;19913;-65
2022/01/12 08:26:18;;;;;;;;;;;;;;;;;;2087392;28;19960;-65
2022/01/12 08:27:37;;;;;;;;;;;;;;;;;;2087751;28;19909;-64
2022/01/12 08:28:56;;;;;;;;;;;;;;;;;;2084332;28;19913;-65
2022/01/12 08:30:17;;;;;;;;;;;;;;;;;;2088550;28;20007;-64
2022/01/12 08:31:36;;;;;;;;;;;;;;;;;;2091788;28;20370;-65
2022/01/12 08:32:54;;;;;;;;;;;;;;;;;;2091343;28;20417;-65
2022/01/12 08:34:13;;;;;;;;;;;;;;;;;;2087065;28;19913;-65
2022/01/12 08:35:32;;;;;;;;;;;;;;;;;;2088306;28;19912;-64
2022/01/12 08:36:51;;;;;;;;;;;;;;;;;;2090219;28;19956;-64
2022/01/12 08:38:10;;;;;;;;;;;;;;;;;;2087816;28;19909;-65
2022/01/12 08:39:29;;;;;;;;;;;;;;;;;;2087935;28;19913;-65
2022/01/12 08:40:48;;;;;;;;;;;;;;;;;;2089272;28;19912;-65
2022/01/12 08:42:06;;;;;;;;;;;;;;;;;;2091088;28;19912;-64
2022/01/12 08:43:25;;;;;;;;;;;;;;;;;;2089217;28;19909;-64
2022/01/12 08:44:44;;;;;;;;;;;;;;;;;;2087359;28;19944;-65
2022/01/12 08:46:03;;;;;;;;;;;;;;;;;;2090978;28;19909;-64
2022/01/12 08:47:22;;;;;;;;;;;;;;;;;;2089265;28;19909;-64
2022/01/12 08:48:41;;;;;;;;;;;;;;;;;;2088451;28;19913;-65
2022/01/12 08:50:00;;;;;;;;;;;;;;;;;;2089684;28;19916;-65
2022/01/12 08:51:19;;;;;;;;;;;;;;;;;;2090056;28;19912;-64
2022/01/12 08:52:38;;;;;;;;;;;;;;;;;;2087869;28;19916;-64
2022/01/12 08:53:57;;;;;;;;;;;;;;;;;;2088203;28;19908;-64
2022/01/12 08:55:16;;;;;;;;;;;;;;;;;;2088760;28;19913;-64
2022/01/12 08:56:37;;;;;;;;;;;;;;;;;;2089729;28;19913;-64
2022/01/12 08:57:58;;;;;;;;;;;;;;;;;;2089967;28;19917;-62
2022/01/12 08:59:17;;;;;;;;;;;;;;;;;;2091329;28;19909;-62
2022/01/12 09:00:36;;;;;;;;;;;;;;;;;;2090697;28;19999;-63
2022/01/12 09:01:55;;;;;;;;;;;;;;;;;;2088396;28;20263;-64
2022/01/12 09:03:14;;;;;;;;;;;;;;;;;;2091061;28;19914;-63
2022/01/12 09:04:33;;;;;;;;;;;;;;;;;;2087462;28;19909;-65
2022/01/12 09:05:52;;;;;;;;;;;;;;;;;;2089193;28;19944;-62
2022/01/12 09:07:11;;;;;;;;;;;;;;;;;;2087445;28;19920;-63
2022/01/12 09:08:30;;;;;;;;;;;;;;;;;;2089658;28;20003;-65
2022/01/12 09:09:49;;;;;;;;;;;;;;;;;;2088706;28;19913;-63
2022/01/12 09:11:08;;;;;;;;;;;;;;;;;;2088785;28;19921;-64
2022/01/12 09:12:27;;;;;;;;;;;;;;;;;;2087539;28;19917;-64
2022/01/12 09:13:46;;;;;;;;;;;;;;;;;;2087769;28;19917;-64
2022/01/12 09:14:57;;;;;;;;;;;;;;;;;;2105608;28;19928;-80
2022/01/12 09:17:19;;;;;;;;;;;;;;;;;;2093674;28;19963;-73
2022/01/12 09:18:38;;;;;;;;;;;;;;;;;;2099511;28;19920;-73
2022/01/12 09:19:57;;;;;;;;;;;;;;;;;;2096888;28;19995;-70
2022/01/12 09:21:15;;;;;;;;;;;;;;;;;;2102792;28;19912;-71
2022/01/12 09:22:34;;;;;;;;;;;;;;;;;;2103614;28;19912;-71
2022/01/12 09:23:53;;;;;;;;;;;;;;;;;;2093647;28;19917;-71
2022/01/12 09:25:12;;;;;;;;;;;;;;;;;;2099125;28;19923;-71
2022/01/12 09:26:31;;;;;;;;;;;;;;;;;;2103387;28;19940;-71
2022/01/12 09:27:50;;;;;;;;;;;;;;;;;;2105388;28;19920;-71
2022/01/12 09:29:09;;;;;;;;;;;;;;;;;;2104509;28;20292;-74
2022/01/12 09:30:28;;;;;;;;;;;;;;;;;;2104142;28;20011;-73
2022/01/12 09:31:47;;;;;;;;;;;;;;;;;;2106060;28;20008;-73
2022/01/12 09:33:06;;;;;;;;;;;;;;;;;;2104786;28;20341;-73
2022/01/12 09:34:25;;;;;;;;;;;;;;;;;;2105226;28;19920;-73
2022/01/12 09:35:46;;;;;;;;;;;;;;;;;;2104268;28;19912;-72
2022/01/12 09:37:05;;;;;;;;;;;;;;;;;;2105321;28;19908;-72
2022/01/12 09:38:24;;;;;;;;;;;;;;;;;;2104576;28;19908;-72
2022/01/12 09:39:43;;;;;;;;;;;;;;;;;;2104849;28;20365;-72
2022/01/12 09:41:02;;;;;;;;;;;;;;;;;;2103233;28;19916;-72
2022/01/12 09:42:21;;;;;;;;;;;;;;;;;;2095744;28;19995;-72
2022/01/12 09:43:41;;;;;;;;;;;;;;;;;;2100406;28;20605;-72
2022/01/12 09:45:00;;;;;;;;;;;;;;;;;;2105130;28;20281;-72
2022/01/12 09:46:21;;;;;;;;;;;;;;;;;;2104829;28;19912;-72
2022/01/12 09:47:40;;;;;;;;;;;;;;;;;;2105657;28;20322;-73
2022/01/12 09:49:00;;;;;;;;;;;;;;;;;;2105380;28;19920;-73
2022/01/12 09:50:19;;;;;;;;;;;;;;;;;;2103512;28;20293;-72
2022/01/12 09:51:38;;;;;;;;;;;;;;;;;;2094496;28;19936;-72
2022/01/12 09:52:57;;;;;;;;;;;;;;;;;;2092982;28;19908;-72
2022/01/12 09:54:15;;;;;;;;;;;;;;;;;;2101319;28;20345;-73
2022/01/12 09:55:34;;;;;;;;;;;;;;;;;;2104574;28;19912;-72
2022/01/12 09:56:53;;;;;;;;;;;;;;;;;;2104185;28;19920;-74
2022/01/12 09:58:12;;;;;;;;;;;;;;;;;;2105998;28;20249;-74
2022/01/12 09:59:31;;;;;;;;;;;;;;;;;;2104817;28;19920;-72
2022/01/12 10:00:50;;;;;;;;;;;;;;;;;;2103648;28;19912;-73
2022/01/12 10:02:09;;;;;;;;;;;;;;;;;;2095262;28;19908;-72
2022/01/12 10:03:28;;;;;;;;;;;;;;;;;;2101289;28;19916;-73
2022/01/12 10:04:47;;;;;;;;;;;;;;;;;;2103817;28;19998;-73
2022/01/12 10:06:06;;;;;;;;;;;;;;;;;;2103525;28;19916;-74
2022/01/12 10:07:25;;;;;;;;;;;;;;;;;;2104552;28;19912;-75
2022/01/12 10:08:44;;;;;;;;;;;;;;;;;;2105202;28;19916;-73
2022/01/12 10:10:04;;;;;;;;;;;;;;;;;;2104108;28;19916;-74
2022/01/12 10:11:23;;;;;;;;;;;;;;;;;;2104140;28;20369;-71
2022/01/12 10:12:42;;;;;;;;;;;;;;;;;;2103594;28;20277;-73
2022/01/12 10:14:02;;;;;;;;;;;;;;;;;;2104720;28;20277;-73
2022/01/12 10:15:20;;;;;;;;;;;;;;;;;;2095758;28;19916;-72
2022/01/12 10:16:39;;;;;;;;;;;;;;;;;;2094752;28;19920;-72
2022/01/12 10:17:58;;;;;;;;;;;;;;;;;;2091851;28;20293;-73
2022/01/12 10:19:17;;;;;;;;;;;;;;;;;;2097340;28;19912;-73